Time;durP1;ratioP1;P1;durP2;ratioP2;P2;SDS_P1;SDS_P2;PMS_P1;PMS_P2;Temp;Humidity;BMP_temperature;BMP_pressure;BME280_temperature;BME280_humidity;BME280_pressure;Samples;Min_cycle;Max_cycle;Signal;HPM_P1;HPM_P2
2021/09/11 00:00:19;;;;;;;10.80;10.00;;;;;;;25.04;45.74;95585.34;4989329;28;20475;-66
2021/09/11 00:02:46;;;;;;;12.73;11.30;;;;;;;24.09;47.76;95590.78;4989640;28;20503;-68
2021/09/11 00:05:13;;;;;;;12.13;11.13;;;;;;;23.93;48.62;95579.44;4989858;28;20117;-68
2021/09/11 00:07:38;;;;;;;11.85;10.95;;;;;;;24.55;47.12;95586.75;4991483;28;20026;-68
2021/09/11 00:10:06;;;;;;;12.05;11.07;;;;;;;24.92;46.04;95578.31;4989027;28;20050;-68
2021/09/11 00:12:33;;;;;;;12.70;11.52;;;;;;;25.14;45.79;95574.50;4988881;28;20132;-66
2021/09/11 00:14:58;;;;;;;13.00;11.63;;;;;;;25.41;45.20;95580.34;4989216;28;20603;-66
2021/09/11 00:17:23;;;;;;;14.10;12.88;;;;;;;23.45;49.62;95551.53;4989483;28;20117;-66
2021/09/11 00:19:49;;;;;;;13.52;12.30;;;;;;;24.19;48.37;95580.34;4988010;28;20027;-66
2021/09/11 00:22:14;;;;;;;14.05;12.93;;;;;;;24.01;49.20;95581.06;4990016;28;20026;-66
2021/09/11 00:24:39;;;;;;;14.45;13.15;;;;;;;24.26;48.19;95575.75;4989452;28;20078;-67
2021/09/11 00:27:05;;;;;;;13.60;12.40;;;;;;;24.24;48.18;95580.00;4989228;28;20423;-67
2021/09/11 00:29:31;;;;;;;15.02;13.30;;;;;;;24.35;47.96;95573.47;4988154;28;20096;-67
2021/09/11 00:31:57;;;;;;;14.85;13.75;;;;;;;24.51;48.06;95591.41;4987702;28;20505;-67
2021/09/11 00:34:23;;;;;;;14.98;13.55;;;;;;;23.67;50.26;95577.72;4991038;28;20030;-67
2021/09/11 00:36:48;;;;;;;14.35;13.20;;;;;;;24.21;48.78;95586.97;4989301;28;20047;-67
2021/09/11 00:39:14;;;;;;;15.23;13.65;;;;;;;23.80;49.93;95591.75;4988609;28;20065;-67
2021/09/11 00:41:40;;;;;;;15.75;14.45;;;;;;;24.68;47.87;95585.25;4989124;28;20035;-67
2021/09/11 00:44:05;;;;;;;14.32;13.27;;;;;;;24.55;47.54;95581.31;4988373;28;20069;-67
2021/09/11 00:46:31;;;;;;;15.55;14.15;;;;;;;24.24;48.42;95580.75;4990869;28;20033;-67
2021/09/11 00:48:56;;;;;;;14.65;13.35;;;;;;;24.86;47.31;95593.47;4988352;28;20039;-67
2021/09/11 00:51:21;;;;;;;15.18;13.73;;;;;;;25.22;46.72;95601.72;4988981;28;20085;-67
2021/09/11 00:53:47;;;;;;;14.52;13.23;;;;;;;24.85;47.35;95602.78;4988917;28;20038;-67
2021/09/11 00:56:13;;;;;;;15.60;14.35;;;;;;;24.33;48.74;95586.63;4988903;28;20031;-67
2021/09/11 00:58:38;;;;;;;15.77;14.48;;;;;;;24.65;48.04;95591.44;4989723;28;20053;-67
2021/09/11 01:01:04;;;;;;;15.50;14.30;;;;;;;24.19;49.00;95593.94;4988433;28;20491;-66
2021/09/11 01:03:29;;;;;;;15.77;14.40;;;;;;;23.66;50.61;95586.25;4988929;28;20037;-68
2021/09/11 01:05:55;;;;;;;16.98;15.23;;;;;;;23.67;50.63;95599.44;4988899;28;20407;-66
2021/09/11 01:08:20;;;;;;;15.93;14.63;;;;;;;23.98;49.98;95598.09;4988553;28;20069;-66
2021/09/11 01:10:46;;;;;;;16.30;14.80;;;;;;;23.42;51.28;95577.50;4988466;28;20092;-66
2021/09/11 01:13:11;;;;;;;16.67;15.25;;;;;;;23.99;50.36;95593.44;4990187;28;20030;-67
2021/09/11 01:15:40;;;;;;;15.80;14.38;;;;;;;23.78;50.65;95594.88;4988526;28;20057;-66
2021/09/11 01:18:08;;;;;;;15.75;14.55;;;;;;;23.93;50.15;95597.69;4988648;28;20034;-67
2021/09/11 01:20:34;;;;;;;16.85;15.48;;;;;;;23.67;51.13;95587.81;4988318;28;20062;-67
2021/09/11 01:23:00;;;;;;;17.30;14.68;;;;;;;23.91;50.53;95602.72;4988749;28;20034;-66
2021/09/11 01:25:26;;;;;;;14.93;13.77;;;;;;;23.49;51.51;95598.47;4990717;28;20080;-67
2021/09/11 01:27:52;;;;;;;15.32;13.98;;;;;;;24.46;49.28;95597.19;4988378;28;20041;-67
2021/09/11 01:30:20;;;;;;;16.52;14.98;;;;;;;24.42;49.42;95604.59;4987910;28;20547;-67
2021/09/11 01:32:47;;;;;;;15.45;14.10;;;;;;;24.47;49.18;95596.06;4973809;28;20054;-66
2021/09/11 01:35:13;;;;;;;15.68;14.35;;;;;;;24.13;49.83;95604.41;4974755;28;20419;-66
2021/09/11 01:37:39;;;;;;;14.93;13.73;;;;;;;23.94;50.26;95608.16;4994024;28;20027;-67
2021/09/11 01:40:07;;;;;;;15.38;14.00;;;;;;;23.07;52.57;95605.88;4991702;28;20041;-67
2021/09/11 01:42:32;;;;;;;14.98;13.50;;;;;;;22.82;53.50;95581.19;4991581;28;20043;-66
2021/09/11 01:45:05;;;;;;;14.77;13.57;;;;;;;22.52;54.54;95607.56;4991907;28;20411;-67
2021/09/11 01:47:30;;;;;;;14.98;13.77;;;;;;;22.67;54.52;95590.31;4992021;28;20155;-67
2021/09/11 01:49:55;;;;;;;15.40;14.00;;;;;;;22.18;55.21;95590.50;4991737;28;20097;-68
2021/09/11 01:52:21;;;;;;;14.20;12.82;;;;;;;22.47;54.95;95597.03;4993800;28;20030;-67
2021/09/11 01:54:47;;;;;;;15.07;13.88;;;;;;;22.72;54.18;95603.53;4991856;28;20399;-67
2021/09/11 01:57:13;;;;;;;14.70;13.60;;;;;;;23.64;51.46;95608.34;4991828;28;20046;-66
2021/09/11 01:59:39;;;;;;;13.35;12.35;;;;;;;23.62;51.57;95602.47;4990814;28;20162;-67
2021/09/11 02:02:06;;;;;;;14.27;13.15;;;;;;;23.87;50.61;95613.56;4991844;28;20026;-67
2021/09/11 02:04:32;;;;;;;13.52;12.52;;;;;;;24.58;49.44;95615.91;4993725;28;20031;-67
2021/09/11 02:06:58;;;;;;;13.98;12.82;;;;;;;24.88;48.38;95613.69;4990739;28;20463;-70
2021/09/11 02:09:24;;;;;;;12.70;11.80;;;;;;;25.02;47.70;95595.81;4990616;28;20054;-67
2021/09/11 02:11:49;;;;;;;13.82;12.55;;;;;;;25.00;47.86;95617.22;4991644;28;20038;-66
2021/09/11 02:14:15;;;;;;;13.18;12.07;;;;;;;25.31;47.08;95618.47;4990892;28;20054;-67
2021/09/11 02:16:41;;;;;;;13.13;12.07;;;;;;;25.54;46.80;95620.81;4993235;28;20030;-67
2021/09/11 02:19:06;;;;;;;13.65;12.38;;;;;;;25.62;46.48;95625.88;4991110;28;20066;-66
2021/09/11 02:21:32;;;;;;;13.20;12.07;;;;;;;25.64;46.20;95609.94;4991424;28;20089;-67
2021/09/11 02:23:57;;;;;;;13.98;12.98;;;;;;;25.65;46.08;95602.53;4991420;28;20479;-67
2021/09/11 02:26:23;;;;;;;13.30;12.30;;;;;;;25.74;46.09;95619.25;4991484;28;20093;-66
2021/09/11 02:28:48;;;;;;;11.80;10.80;;;;;;;25.66;46.23;95625.88;4990170;28;20034;-66
2021/09/11 02:31:14;;;;;;;10.75;9.90;;;;;;;25.66;45.87;95620.44;4992926;28;20519;-67
2021/09/11 02:33:41;;;;;;;9.80;9.10;;;;;;;25.51;45.89;95621.59;4991273;28;20480;-67
2021/09/11 02:36:07;;;;;;;10.40;8.20;;;;;;;25.45;45.56;95623.16;4991059;28;20084;-66
2021/09/11 02:38:32;;;;;;;8.52;7.70;;;;;;;25.45;45.50;95623.94;4990883;28;20081;-67
2021/09/11 02:40:58;;;;;;;7.88;7.38;;;;;;;25.38;45.29;95621.97;4990485;28;20027;-66
2021/09/11 02:43:24;;;;;;;7.65;7.00;;;;;;;25.31;45.31;95630.13;4992256;28;20042;-67
2021/09/11 02:45:50;;;;;;;7.22;6.70;;;;;;;24.64;46.38;95622.53;4990910;28;20534;-68
2021/09/11 02:48:15;;;;;;;7.22;6.63;;;;;;;25.02;45.99;95631.19;4990942;28;20133;-66
2021/09/11 02:50:40;;;;;;;7.45;6.75;;;;;;;25.26;45.77;95646.84;4990398;28;20039;-67
2021/09/11 02:53:06;;;;;;;6.50;6.03;;;;;;;25.27;45.61;95650.34;4990746;28;20093;-67
2021/09/11 02:55:31;;;;;;;7.20;6.50;;;;;;;25.37;45.42;95644.91;4992525;28;20113;-65
2021/09/11 02:57:56;;;;;;;6.75;6.25;;;;;;;25.33;45.50;95638.69;4989049;28;20026;-67
2021/09/11 03:00:22;;;;;;;6.82;6.32;;;;;;;25.51;45.36;95640.66;4989912;28;20668;-67
2021/09/11 03:02:47;;;;;;;7.93;7.30;;;;;;;25.57;45.40;95642.59;4990612;28;20467;-67
2021/09/11 03:05:13;;;;;;;7.25;6.75;;;;;;;25.49;45.38;95634.81;4973196;28;20037;-67
2021/09/11 03:07:38;;;;;;;7.47;6.93;;;;;;;25.40;45.90;95648.81;4992391;28;20120;-67
2021/09/11 03:10:04;;;;;;;7.85;7.32;;;;;;;25.34;46.16;95651.16;4990014;28;20065;-67
2021/09/11 03:12:29;;;;;;;8.15;7.55;;;;;;;25.45;45.88;95636.78;4990390;28;20046;-67
2021/09/11 03:14:55;;;;;;;7.50;7.00;;;;;;;25.43;46.15;95634.41;4989732;28;20466;-67
2021/09/11 03:17:21;;;;;;;8.75;7.97;;;;;;;25.49;46.43;95632.09;4990381;28;20046;-66
2021/09/11 03:19:46;;;;;;;8.18;7.57;;;;;;;25.36;46.24;95632.47;4991746;28;20045;-67
2021/09/11 03:22:12;;;;;;;8.88;8.20;;;;;;;25.34;46.63;95626.66;4990790;28;20046;-67
2021/09/11 03:24:37;;;;;;;9.88;8.27;;;;;;;25.29;47.12;95628.97;4990334;28;20050;-67
2021/09/11 03:27:02;;;;;;;9.38;8.35;;;;;;;25.22;47.81;95634.38;4990311;28;20065;-67
2021/09/11 03:29:28;;;;;;;9.10;8.32;;;;;;;25.07;48.25;95628.13;4989385;28;20066;-67
2021/09/11 03:31:53;;;;;;;8.48;7.88;;;;;;;25.09;48.20;95631.28;4990477;28;20046;-66
2021/09/11 03:34:19;;;;;;;8.85;8.00;;;;;;;24.92;48.66;95616.41;4992011;28;20031;-67
2021/09/11 03:36:44;;;;;;;10.18;9.48;;;;;;;24.89;48.72;95633.50;4990429;28;20039;-67
2021/09/11 03:39:09;;;;;;;10.13;9.43;;;;;;;24.80;49.09;95617.53;4989900;28;20050;-67
2021/09/11 03:41:34;;;;;;;9.60;8.80;;;;;;;24.79;49.09;95626.88;4990274;28;20031;-67
2021/09/11 03:44:00;;;;;;;10.75;9.85;;;;;;;24.71;49.71;95617.13;4989831;28;20526;-67
2021/09/11 03:46:25;;;;;;;11.48;10.40;;;;;;;24.75;49.44;95622.56;4991790;28;20550;-67
2021/09/11 03:48:50;;;;;;;10.85;9.98;;;;;;;24.77;49.40;95623.75;4989440;28;20472;-67
2021/09/11 03:51:16;;;;;;;10.23;9.50;;;;;;;24.80;49.80;95627.66;4990000;28;20732;-67
2021/09/11 03:53:41;;;;;;;9.60;8.80;;;;;;;24.79;49.64;95628.81;4989595;28;20049;-67
2021/09/11 03:56:07;;;;;;;10.52;9.63;;;;;;;24.62;49.69;95611.28;4989659;28;20173;-66
2021/09/11 03:58:33;;;;;;;10.35;9.55;;;;;;;24.71;49.93;95624.50;4991100;28;20552;-67
2021/09/11 04:01:01;;;;;;;10.30;9.55;;;;;;;24.75;49.89;95626.06;4989472;28;20169;-67
2021/09/11 04:03:26;;;;;;;8.45;7.75;;;;;;;24.69;49.39;95614.00;4989645;28;20038;-67
2021/09/11 04:05:52;;;;;;;10.65;9.85;;;;;;;24.68;49.56;95622.56;4972201;28;20054;-68
2021/09/11 04:08:17;;;;;;;9.32;8.38;;;;;;;24.61;49.72;95624.06;4972145;28;20484;-67
2021/09/11 04:10:42;;;;;;;9.73;9.02;;;;;;;24.58;50.04;95615.91;4991064;28;20030;-66
2021/09/11 04:13:08;;;;;;;9.52;8.75;;;;;;;24.59;49.94;95628.34;4989527;28;20053;-67
2021/09/11 04:15:33;;;;;;;9.50;8.80;;;;;;;24.35;50.53;95608.81;4988762;28;20038;-67
2021/09/11 04:17:58;;;;;;;10.20;9.40;;;;;;;24.30;51.18;95600.97;4989119;28;20137;-67
2021/09/11 04:20:24;;;;;;;10.55;9.75;;;;;;;24.26;51.22;95602.94;4988867;28;20558;-66
2021/09/11 04:22:49;;;;;;;10.55;9.75;;;;;;;24.13;51.54;95593.53;4989152;28;20018;-66
2021/09/11 04:25:14;;;;;;;11.20;10.25;;;;;;;24.12;51.52;95597.41;4991330;28;20056;-66
2021/09/11 04:27:40;;;;;;;12.75;11.75;;;;;;;24.11;51.72;95602.06;4989160;28;20037;-66
2021/09/11 04:30:06;;;;;;;11.93;10.98;;;;;;;24.12;51.64;95602.84;4988221;28;20101;-67
2021/09/11 04:32:31;;;;;;;12.48;11.48;;;;;;;24.17;51.72;95616.06;4989136;28;20117;-66
2021/09/11 04:34:57;;;;;;;12.35;11.35;;;;;;;24.12;51.83;95602.84;4989027;28;20058;-66
2021/09/11 04:37:22;;;;;;;12.55;11.60;;;;;;;24.13;52.11;95607.13;4989854;28;20031;-66
2021/09/11 04:39:47;;;;;;;13.25;12.15;;;;;;;24.11;52.11;95621.09;4987279;28;20626;-66
2021/09/11 04:42:13;;;;;;;13.98;12.88;;;;;;;24.10;52.63;95626.88;4989064;28;20125;-66
2021/09/11 04:44:38;;;;;;;13.43;12.32;;;;;;;24.00;52.86;95605.84;4988577;28;20051;-67
2021/09/11 04:47:04;;;;;;;14.00;12.90;;;;;;;23.97;52.71;95609.34;4988762;28;20068;-66
2021/09/11 04:49:29;;;;;;;14.27;12.90;;;;;;;24.10;52.78;95622.22;4990610;28;20105;-67
2021/09/11 04:51:55;;;;;;;13.02;11.93;;;;;;;24.09;52.28;95619.91;4988973;28;20117;-66
2021/09/11 04:54:20;;;;;;;14.35;13.35;;;;;;;24.19;52.33;95621.91;4988962;28;20054;-68
2021/09/11 04:56:45;;;;;;;12.50;11.60;;;;;;;24.12;52.46;95611.78;4989000;28;20034;-67
2021/09/11 04:59:11;;;;;;;14.20;13.00;;;;;;;24.20;52.48;95625.41;4988088;28;20042;-66
2021/09/11 05:01:36;;;;;;;11.65;10.77;;;;;;;24.22;52.03;95618.44;4990452;28;20029;-66
2021/09/11 05:04:01;;;;;;;13.20;12.20;;;;;;;24.22;51.78;95621.16;4988976;28;20031;-67
2021/09/11 05:06:27;;;;;;;14.25;13.02;;;;;;;24.33;52.16;95630.13;4990014;28;20034;-67
2021/09/11 05:08:52;;;;;;;11.40;10.50;;;;;;;24.37;51.99;95633.69;4992337;28;20103;-67
2021/09/11 05:11:17;;;;;;;12.38;11.48;;;;;;;24.34;51.93;95617.31;4992925;28;20054;-66
2021/09/11 05:13:43;;;;;;;12.35;11.25;;;;;;;24.30;52.05;95625.44;4994288;28;20404;-66
2021/09/11 05:16:08;;;;;;;13.00;11.98;;;;;;;24.20;52.05;95611.81;4992313;28;20125;-66
2021/09/11 05:18:34;;;;;;;12.48;11.48;;;;;;;24.44;51.88;95643.03;4992552;28;20093;-66
2021/09/11 05:21:06;;;;;;;12.38;11.43;;;;;;;24.55;51.78;95643.88;4992516;28;20169;-67
2021/09/11 05:23:32;;;;;;;11.02;10.13;;;;;;;24.50;51.91;95633.34;4992775;28;20074;-66
2021/09/11 05:26:03;;;;;;;11.52;10.63;;;;;;;24.55;51.73;95632.97;4992484;28;20061;-66
2021/09/11 05:28:28;;;;;;;11.10;10.30;;;;;;;24.74;51.56;95650.94;4994149;28;20096;-66
2021/09/11 05:30:54;;;;;;;11.48;10.57;;;;;;;24.71;51.25;95638.88;4991669;28;20484;-66
2021/09/11 05:33:19;;;;;;;12.20;11.20;;;;;;;24.86;51.29;95647.88;4974623;28;20034;-66
2021/09/11 05:35:45;;;;;;;10.95;10.05;;;;;;;24.97;50.92;95650.63;4992328;28;20077;-66
2021/09/11 05:38:10;;;;;;;11.68;10.77;;;;;;;25.07;50.70;95656.13;4992284;28;20577;-66
2021/09/11 05:40:35;;;;;;;11.23;10.32;;;;;;;25.14;50.45;95656.16;4993727;28;20061;-66
2021/09/11 05:43:01;;;;;;;10.90;10.00;;;;;;;25.13;50.48;95656.53;4992198;28;20081;-66
2021/09/11 05:45:27;;;;;;;11.05;10.10;;;;;;;25.23;50.34;95666.66;4990321;28;20039;-67
2021/09/11 05:47:52;;;;;;;10.55;9.65;;;;;;;25.31;50.47;95670.97;4991912;28;20093;-66
2021/09/11 05:50:17;;;;;;;10.00;9.25;;;;;;;25.37;50.21;95665.94;4991580;28;20039;-66
2021/09/11 05:52:43;;;;;;;10.77;9.90;;;;;;;25.47;50.22;95678.00;4993957;28;20109;-66
2021/09/11 05:55:09;;;;;;;13.90;12.90;;;;;;;25.57;49.99;95677.25;4990818;28;20042;-66
2021/09/11 05:57:34;;;;;;;11.55;10.48;;;;;;;25.53;49.74;95658.16;4974399;28;20038;-66
2021/09/11 06:00:00;;;;;;;12.02;11.05;;;;;;;25.68;49.77;95667.91;4988408;28;20058;-67
2021/09/11 06:02:25;;;;;;;11.20;10.40;;;;;;;25.60;49.42;95650.00;5004568;23;20038;-71
2021/09/11 06:04:51;;;;;;;10.00;9.23;;;;;;;25.79;49.42;95664.44;4990287;28;20039;-70
2021/09/11 06:07:16;;;;;;;10.82;10.02;;;;;;;25.83;49.30;95671.44;4994405;28;20027;-70
2021/09/11 06:09:42;;;;;;;10.00;9.10;;;;;;;25.78;49.31;95666.38;4976772;28;20535;-75
2021/09/11 06:12:10;;;;;;;10.38;9.48;;;;;;;25.90;49.26;95668.72;4993489;28;20066;-68
2021/09/11 06:14:36;;;;;;;10.73;9.55;;;;;;;25.86;49.21;95664.44;4976898;28;20444;-74
2021/09/11 06:17:02;;;;;;;9.43;8.75;;;;;;;25.90;49.27;95665.22;4993499;28;20384;-75
2021/09/11 06:19:27;;;;;;;10.27;9.52;;;;;;;25.96;49.02;95655.50;5009210;28;20018;-75
2021/09/11 06:21:52;;;;;;;10.93;10.13;;;;;;;26.00;48.76;95663.63;4993970;28;20179;-75
2021/09/11 06:24:18;;;;;;;11.30;10.50;;;;;;;25.97;48.92;95657.03;4993890;28;20076;-73
2021/09/11 06:26:43;;;;;;;9.85;9.15;;;;;;;26.08;48.53;95665.97;5011507;28;20041;-70
2021/09/11 06:29:08;;;;;;;9.60;8.75;;;;;;;26.02;48.60;95650.41;4990641;28;20207;-72
2021/09/11 06:31:34;;;;;;;9.25;8.65;;;;;;;26.12;48.83;95666.75;5005754;28;20025;-71
2021/09/11 06:33:59;;;;;;;9.68;8.98;;;;;;;26.16;48.55;95659.34;4993584;28;20029;-73
2021/09/11 06:36:24;;;;;;;9.38;8.68;;;;;;;26.27;48.10;95662.06;4994120;28;20121;-86
2021/09/11 06:38:50;;;;;;;8.90;8.30;;;;;;;26.31;47.99;95660.13;5012419;28;20045;-71
2021/09/11 06:41:15;;;;;;;7.80;7.20;;;;;;;26.39;46.91;95656.19;5010640;28;20037;-68
2021/09/11 06:43:40;;;;;;;7.97;7.45;;;;;;;26.51;47.31;95648.78;5012502;28;20044;-69
2021/09/11 06:46:06;;;;;;;8.23;7.53;;;;;;;26.75;46.83;95652.59;4992251;28;20227;-67
2021/09/11 06:48:33;;;;;;;7.05;6.57;;;;;;;26.86;46.98;95656.06;4990940;28;20058;-68
2021/09/11 06:50:58;;;;;;;7.72;7.13;;;;;;;27.05;46.31;95668.44;4990623;28;20039;-71
2021/09/11 06:53:23;;;;;;;7.70;7.10;;;;;;;27.04;46.16;95655.97;4990632;28;20034;-71
2021/09/11 06:55:50;;;;;;;7.13;6.55;;;;;;;27.16;45.48;95659.06;4990770;28;20026;-68
2021/09/11 06:58:16;;;;;;;5.88;5.47;;;;;;;27.30;45.89;95663.66;4976025;28;20049;-69
2021/09/11 07:00:41;;;;;;;6.65;6.22;;;;;;;27.36;45.49;95661.28;4989754;28;20543;-70
2021/09/11 07:03:06;;;;;;;6.47;5.97;;;;;;;27.52;45.54;95658.06;4972387;28;20408;-69
2021/09/11 07:05:32;;;;;;;6.25;5.85;;;;;;;27.78;45.17;95662.19;4990230;28;20049;-68
2021/09/11 07:07:57;;;;;;;6.43;5.97;;;;;;;27.69;45.05;95659.88;4990319;28;20113;-67
2021/09/11 07:10:22;;;;;;;5.68;5.28;;;;;;;27.98;44.28;95655.75;4991772;28;20018;-69
2021/09/11 07:12:48;;;;;;;5.13;4.82;;;;;;;28.24;43.84;95653.56;4990394;28;20133;-68
2021/09/11 07:15:13;;;;;;;5.97;5.57;;;;;;;28.46;43.39;95657.69;4992581;28;20043;-75
2021/09/11 07:17:40;;;;;;;6.07;5.53;;;;;;;28.61;43.04;95650.09;5010382;28;20056;-75
2021/09/11 07:20:06;;;;;;;5.68;5.38;;;;;;;28.64;42.15;95651.22;5009749;28;20073;-74
2021/09/11 07:22:32;;;;;;;5.28;4.88;;;;;;;28.80;42.41;95662.38;4994279;28;20667;-74
2021/09/11 07:24:57;;;;;;;5.25;4.80;;;;;;;28.87;42.00;95656.81;5010150;28;20033;-75
2021/09/11 07:27:23;;;;;;;5.28;4.93;;;;;;;29.06;41.89;95668.34;4992339;28;20064;-75
2021/09/11 07:29:48;;;;;;;5.35;4.90;;;;;;;29.26;41.54;95658.28;5003787;28;20038;-76
2021/09/11 07:32:14;;;;;;;5.22;4.82;;;;;;;29.36;41.52;95646.41;4972728;28;20037;-74
2021/09/11 07:34:40;;;;;;;4.90;4.60;;;;;;;29.59;41.28;95662.16;4992213;28;20026;-74
2021/09/11 07:37:05;;;;;;;5.20;4.53;;;;;;;29.72;40.97;95665.09;4989941;28;20045;-74
2021/09/11 07:39:30;;;;;;;5.00;4.70;;;;;;;29.70;40.81;95653.78;4972245;28;20058;-75
2021/09/11 07:41:56;;;;;;;5.20;4.90;;;;;;;29.78;40.80;95657.94;4990334;28;20049;-75
2021/09/11 07:44:22;;;;;;;5.05;4.63;;;;;;;29.77;40.82;95642.69;4989753;28;20070;-74
2021/09/11 07:46:47;;;;;;;5.45;5.05;;;;;;;30.03;40.97;95657.53;4972350;28;20100;-74
2021/09/11 07:49:14;;;;;;;5.40;5.00;;;;;;;29.99;40.17;95662.28;4991454;28;20416;-75
2021/09/11 07:51:39;;;;;;;5.55;5.15;;;;;;;30.14;39.79;95663.63;4972352;28;20109;-74
2021/09/11 07:54:04;;;;;;;5.47;5.18;;;;;;;30.09;39.30;95658.59;4972417;28;20546;-74
2021/09/11 07:56:30;;;;;;;5.47;4.68;;;;;;;30.13;39.20;95667.56;4989711;28;20173;-74
2021/09/11 07:58:55;;;;;;;5.20;4.72;;;;;;;30.09;39.16;95660.56;4971654;28;20113;-74
2021/09/11 08:01:21;;;;;;;6.60;5.40;;;;;;;29.90;39.06;95646.38;4991131;28;20041;-74
2021/09/11 08:03:46;;;;;;;6.00;5.60;;;;;;;30.18;38.85;95669.06;4989372;28;20527;-74
2021/09/11 08:06:12;;;;;;;5.40;5.00;;;;;;;30.34;38.47;95676.63;4972055;28;20046;-73
2021/09/11 08:08:38;;;;;;;5.07;4.72;;;;;;;30.51;38.61;95681.81;4989649;28;20093;-74
2021/09/11 08:11:08;;;;;;;6.60;5.45;;;;;;;30.51;38.56;95654.34;4989623;28;20026;-74
2021/09/11 08:13:35;;;;;;;5.50;5.00;;;;;;;30.70;38.50;95677.53;4973963;28;20029;-74
2021/09/11 08:16:00;;;;;;;5.63;5.22;;;;;;;30.70;37.79;95655.56;4988979;28;20042;-75
2021/09/11 08:18:26;;;;;;;4.93;4.63;;;;;;;31.04;36.85;95681.97;4972579;28;20180;-76
2021/09/11 08:20:52;;;;;;;5.53;5.13;;;;;;;31.14;36.94;95667.25;4989363;28;20141;-77
2021/09/11 08:23:18;;;;;;;4.82;4.53;;;;;;;31.50;37.16;95681.00;4991142;28;20038;-88
2021/09/11 08:25:47;;;;;;;5.72;5.32;;;;;;;31.50;36.50;95664.50;4993034;28;20053;-79
2021/09/11 08:28:13;;;;;;;5.13;4.72;;;;;;;31.42;36.85;95665.84;4974368;28;20039;-76
2021/09/11 08:30:39;;;;;;;5.68;5.28;;;;;;;31.43;35.98;95672.13;4990176;28;20053;-81
2021/09/11 08:33:04;;;;;;;4.90;4.57;;;;;;;31.68;35.50;95677.84;4999134;28;20559;-82
2021/09/11 08:35:30;;;;;;;5.28;4.93;;;;;;;31.82;35.59;95682.25;5009537;28;20040;-85
2021/09/11 08:37:55;;;;;;;4.75;4.45;;;;;;;31.64;34.79;95662.66;4992314;28;20487;-78
2021/09/11 08:40:21;;;;;;;5.28;4.88;;;;;;;31.68;35.16;95677.06;4995720;28;20502;-88
2021/09/11 08:42:46;;;;;;;5.15;4.85;;;;;;;30.93;35.25;95662.97;4999718;28;20034;-74
2021/09/11 08:45:14;;;;;;;4.95;4.55;;;;;;;30.91;35.81;95678.31;4994311;28;20562;-82
2021/09/11 08:47:46;;;;;;;4.65;4.25;;;;;;;31.07;35.96;95681.13;5001505;28;20054;-83
2021/09/11 08:50:13;;;;;;;4.90;4.57;;;;;;;31.25;35.88;95683.50;5015935;28;20047;-76
2021/09/11 08:52:48;;;;;;;4.80;4.40;;;;;;;31.57;35.07;95683.59;5019064;28;20113;-77
2021/09/11 08:55:15;;;;;;;4.60;4.30;;;;;;;31.31;35.48;95681.81;5016320;28;20053;-85
2021/09/11 08:57:58;;;;;;;4.55;4.20;;;;;;;31.60;35.20;95686.69;5016804;28;20042;-80
2021/09/11 09:00:37;;;;;;;5.28;4.32;;;;;;;31.38;34.94;95683.63;4990829;28;20065;-71
2021/09/11 09:03:22;;;;;;;4.72;4.38;;;;;;;30.99;35.04;95682.47;4996923;28;20046;-86
2021/09/11 09:05:47;;;;;;;4.70;4.40;;;;;;;31.23;34.92;95680.41;4996337;28;20049;-74
2021/09/11 09:08:12;;;;;;;4.97;4.57;;;;;;;31.54;34.23;95678.97;4978169;28;20038;-73
2021/09/11 09:10:38;;;;;;;5.07;4.57;;;;;;;31.76;34.54;95683.97;4996912;28;20050;-74
2021/09/11 09:13:03;;;;;;;5.38;4.93;;;;;;;31.56;34.33;95681.28;4996813;28;20042;-77
2021/09/11 09:15:30;;;;;;;5.05;4.70;;;;;;;31.90;34.95;95677.38;4982298;28;20069;-78
2021/09/11 09:17:56;;;;;;;6.63;5.22;;;;;;;32.03;34.55;95681.75;4986289;28;20505;-73
2021/09/11 09:20:26;;;;;;;5.75;5.35;;;;;;;32.05;33.26;95681.34;5014835;28;20077;-80
2021/09/11 09:23:16;;;;;;;5.93;5.53;;;;;;;32.24;34.24;95691.44;5015881;28;20033;-78
2021/09/11 09:25:41;;;;;;;5.25;4.85;;;;;;;32.49;33.50;95681.78;5000501;28;20044;-77
2021/09/11 09:28:09;;;;;;;5.18;4.78;;;;;;;32.77;33.37;95683.78;5015456;28;20117;-71
2021/09/11 09:30:45;;;;;;;4.75;4.43;;;;;;;32.93;32.95;95685.75;5007275;28;20033;-78
2021/09/11 09:33:21;;;;;;;5.30;4.90;;;;;;;32.85;33.02;95681.59;5004505;28;20161;-72
2021/09/11 09:35:48;;;;;;;4.70;4.32;;;;;;;32.93;32.55;95679.47;5016310;28;20052;-71
2021/09/11 09:38:13;;;;;;;5.28;4.78;;;;;;;33.16;32.66;95678.41;5015458;28;20033;-73
2021/09/11 09:40:43;;;;;;;4.90;4.50;;;;;;;32.75;33.07;95679.91;5016736;28;20026;-76
2021/09/11 09:43:10;;;;;;;5.90;5.30;;;;;;;29.67;35.65;95688.25;4998024;28;20511;-77
2021/09/11 09:45:36;;;;;;;6.13;5.50;;;;;;;27.73;39.53;95685.25;4993593;28;20054;-78
2021/09/11 09:48:04;;;;;;;5.40;4.90;;;;;;;27.66;40.29;95690.75;4996397;28;20062;-74
2021/09/11 09:50:33;;;;;;;4.80;4.50;;;;;;;30.17;36.46;95687.50;4977858;28;20050;-79
2021/09/11 09:52:59;;;;;;;5.28;4.88;;;;;;;31.26;35.11;95690.56;4991907;28;20101;-74
2021/09/11 09:55:25;;;;;;;5.30;4.95;;;;;;;31.76;33.25;95675.72;4995663;28;20026;-72
2021/09/11 09:57:51;;;;;;;5.43;5.03;;;;;;;31.52;32.87;95677.81;4976247;28;20031;-73
2021/09/11 10:00:16;;;;;;;4.85;4.50;;;;;;;30.90;34.29;95679.50;4991587;28;20538;-73
2021/09/11 10:02:42;;;;;;;5.80;5.40;;;;;;;30.50;34.36;95672.00;4991394;28;20030;-74
2021/09/11 10:05:17;;;;;;;5.90;5.35;;;;;;;30.68;34.31;95681.88;4995130;28;20101;-78
2021/09/11 10:07:54;;;;;;;5.50;5.10;;;;;;;30.91;34.52;95678.31;4994349;28;20034;-78
2021/09/11 10:10:27;;;;;;;6.25;5.65;;;;;;;30.83;33.47;95682.41;4992094;28;20515;-77
2021/09/11 10:13:04;;;;;;;6.28;5.80;;;;;;;27.84;38.95;95687.91;4974363;28;20088;-75
2021/09/11 10:15:35;;;;;;;5.63;5.22;;;;;;;29.57;36.21;95683.72;4992435;28;20041;-78
2021/09/11 10:18:02;;;;;;;6.13;5.65;;;;;;;27.77;39.29;95677.81;4991825;28;20561;-73
2021/09/11 10:20:28;;;;;;;6.15;5.75;;;;;;;28.52;38.23;95673.66;4991189;28;20042;-75
2021/09/11 10:23:07;;;;;;;5.45;5.05;;;;;;;30.11;36.13;95680.13;4992914;28;20101;-80
2021/09/11 10:25:39;;;;;;;5.80;5.40;;;;;;;30.85;35.15;95666.28;4994495;28;20128;-77
2021/09/11 10:28:31;;;;;;;5.63;5.13;;;;;;;31.38;33.71;95667.94;4975325;28;20496;-76
2021/09/11 10:31:12;;;;;;;5.15;4.75;;;;;;;31.82;32.88;95657.50;4973284;28;20095;-76
2021/09/11 10:33:46;;;;;;;5.85;5.35;;;;;;;32.30;32.27;95656.69;4992081;28;20050;-74
2021/09/11 10:36:20;;;;;;;5.32;4.88;;;;;;;32.59;32.67;95659.47;4991992;28;20054;-77
2021/09/11 10:38:46;;;;;;;6.13;5.35;;;;;;;32.86;31.57;95653.63;4991728;28;20046;-76
2021/09/11 10:41:16;;;;;;;6.00;5.50;;;;;;;32.63;30.39;95650.34;4992068;28;20114;-75
2021/09/11 10:44:11;;;;;;;5.68;5.28;;;;;;;32.73;31.32;95647.31;4993711;28;20073;-75
2021/09/11 10:46:51;;;;;;;5.78;5.38;;;;;;;32.84;31.74;95644.25;4962518;28;20066;-75
2021/09/11 10:49:32;;;;;;;5.13;4.72;;;;;;;32.99;31.79;95641.88;4974041;28;20050;-75
2021/09/11 10:52:13;;;;;;;5.10;4.70;;;;;;;33.09;31.59;95636.06;4991557;28;20038;-77
2021/09/11 10:54:39;;;;;;;5.43;4.88;;;;;;;33.05;30.83;95635.38;4974078;28;20038;-75
2021/09/11 10:57:16;;;;;;;4.78;4.47;;;;;;;33.04;31.14;95633.06;4990760;28;20117;-73
2021/09/11 10:59:41;;;;;;;5.57;4.80;;;;;;;33.08;31.27;95631.00;4973339;28;20062;-73
2021/09/11 11:02:21;;;;;;;5.47;4.32;;;;;;;33.19;30.87;95634.19;4990306;28;20193;-74
2021/09/11 11:04:46;;;;;;;4.70;4.40;;;;;;;33.33;30.81;95627.50;4990125;28;20129;-74
2021/09/11 11:07:13;;;;;;;5.10;4.60;;;;;;;33.32;30.34;95635.00;4992682;28;20550;-74
2021/09/11 11:09:41;;;;;;;5.20;4.70;;;;;;;33.42;30.59;95621.31;4990435;28;20515;-75
2021/09/11 11:12:10;;;;;;;4.65;4.25;;;;;;;33.62;30.12;95630.91;4990778;28;20035;-75
2021/09/11 11:14:45;;;;;;;4.70;4.40;;;;;;;33.99;29.27;95620.28;4991322;28;20531;-74
2021/09/11 11:17:19;;;;;;;4.25;3.97;;;;;;;34.29;29.13;95620.84;4980729;28;20090;-74
2021/09/11 11:19:49;;;;;;;4.40;4.20;;;;;;;34.36;28.90;95607.56;4994076;28;20033;-75
2021/09/11 11:22:24;;;;;;;4.60;4.30;;;;;;;34.54;28.39;95615.25;5010806;28;20034;-74
2021/09/11 11:24:50;;;;;;;4.57;4.28;;;;;;;34.61;29.01;95615.00;5010111;28;20038;-75